TimeMST,TemperatureF,Dew PointF,Humidity,Sea Level PressureIn,VisibilityMPH,Wind Direction,Wind SpeedMPH,Gust SpeedMPH,PrecipitationIn,Events,Conditions,WindDirDegrees,DateUTC
12:51 AM,3.9,-0.0,84,30.10,10.0,Calm,Calm,-,N/A,,Clear,0,2012-12-19 07:51:00
1:22 AM,5.0,-0.4,78,29.90,9.0,Calm,Calm,-,N/A,,Mostly Cloudy,0,2012-12-19 08:22:00
1:51 AM,6.1,1.9,83,30.09,9.0,Calm,Calm,-,N/A,,Overcast,0,2012-12-19 08:51:00
2:51 AM,6.1,1.9,83,30.10,10.0,Calm,Calm,-,N/A,,Overcast,0,2012-12-19 09:51:00
3:51 AM,6.1,1.0,80,30.13,10.0,Calm,Calm,-,N/A,,Scattered Clouds,0,2012-12-19 10:51:00
4:51 AM,5.0,-0.0,80,30.15,10.0,Calm,Calm,-,N/A,,Overcast,0,2012-12-19 11:51:00
5:51 AM,7.0,3.0,84,30.17,10.0,Calm,Calm,-,N/A,,Overcast,0,2012-12-19 12:51:00
6:51 AM,3.0,-2.0,80,30.22,10.0,Calm,Calm,-,N/A,,Clear,0,2012-12-19 13:51:00
7:37 AM,1.4,-2.2,85,29.99,10.0,Calm,Calm,-,N/A,,Partly Cloudy,0,2012-12-19 14:37:00
7:51 AM,1.0,-4.0,79,30.26,10.0,Calm,Calm,-,N/A,,Mostly Cloudy,0,2012-12-19 14:51:00
8:30 AM,1.4,-2.2,85,30.00,10.0,Calm,Calm,-,N/A,,Overcast,0,2012-12-19 15:30:00
8:47 AM,3.2,-2.2,78,30.02,10.0,Calm,Calm,-,N/A,,Overcast,0,2012-12-19 15:47:00
8:51 AM,3.0,-2.0,80,30.29,10.0,Calm,Calm,-,N/A,,Overcast,0,2012-12-19 15:51:00
9:16 AM,3.2,-2.2,78,30.02,1.0,Calm,Calm,-,N/A,,Haze,0,2012-12-19 16:16:00
9:23 AM,3.2,-0.4,85,30.03,0.5,Calm,Calm,-,N/A,Fog,Light Freezing Fog,0,2012-12-19 16:23:00
9:34 AM,3.2,-0.4,85,30.04,1.2,Calm,Calm,-,N/A,,Overcast,0,2012-12-19 16:34:00
9:39 AM,3.2,-0.4,85,30.04,3.0,Calm,Calm,-,N/A,,Overcast,0,2012-12-19 16:39:00
9:51 AM,3.9,-0.9,80,30.31,8.0,Calm,Calm,-,N/A,,Overcast,0,2012-12-19 16:51:00
10:15 AM,8.6,3.2,79,30.05,10.0,Calm,Calm,-,N/A,,Scattered Clouds,0,2012-12-19 17:15:00
10:51 AM,10.9,6.1,81,30.31,6.0,Calm,Calm,-,N/A,,Haze,0,2012-12-19 17:51:00
10:58 AM,12.2,8.6,85,30.07,7.0,Calm,Calm,-,N/A,,Mostly Cloudy,0,2012-12-19 17:58:00
11:51 AM,12.9,10.9,92,30.29,6.0,Calm,Calm,-,0.00,Snow,Light Snow,0,2012-12-19 18:51:00
12:51 PM,15.1,12.0,88,30.30,9.0,South,6.9,-,0.00,Snow,Light Snow,170,2012-12-19 19:51:00
1:51 PM,19.0,12.0,74,30.27,9.0,SE,11.5,-,0.00,,Overcast,140,2012-12-19 20:51:00
2:12 PM,19.4,10.4,68,30.06,10.0,SE,10.4,-,N/A,,Overcast,140,2012-12-19 21:12:00
2:51 PM,19.9,10.9,68,30.27,10.0,SSE,9.2,-,N/A,,Overcast,160,2012-12-19 21:51:00
3:51 PM,19.9,10.9,68,30.28,10.0,SSE,6.9,-,N/A,,Mostly Cloudy,160,2012-12-19 22:51:00
4:51 PM,19.0,10.0,68,30.30,10.0,SE,8.1,-,N/A,,Partly Cloudy,140,2012-12-19 23:51:00
5:51 PM,18.0,9.0,68,30.30,10.0,SSE,6.9,-,N/A,,Clear,150,2012-12-20 00:51:00
6:51 PM,18.0,9.0,68,30.31,10.0,SSE,6.9,-,N/A,,Overcast,160,2012-12-20 01:51:00
7:51 PM,18.0,9.0,68,30.33,10.0,Calm,Calm,-,N/A,,Overcast,0,2012-12-20 02:51:00
8:51 PM,19.9,9.0,62,30.31,10.0,SE,6.9,-,N/A,,Overcast,130,2012-12-20 03:51:00
9:51 PM,18.0,9.0,68,30.31,10.0,SSE,6.9,-,N/A,,Scattered Clouds,160,2012-12-20 04:51:00
11:51 PM,19.9,8.1,60,30.27,10.0,SE,8.1,-,N/A,,Mostly Cloudy,130,2012-12-20 06:51:00